sensor_id;sensor_type;location;lat;lon;timestamp;pressure;altitude;pressure_sealevel;temperature;humidity
71043;BME280;58696;52.134;5.500;2023-02-13T00:01:39;103958.06;;;6.68;81.80
71043;BME280;58696;52.134;5.500;2023-02-13T00:04:06;103960.59;;;6.68;82.08
71043;BME280;58696;52.134;5.500;2023-02-13T00:06:33;103956.41;;;6.67;81.69
71043;BME280;58696;52.134;5.500;2023-02-13T00:08:59;103957.31;;;6.66;81.55
71043;BME280;58696;52.134;5.500;2023-02-13T00:11:28;103950.38;;;6.68;81.92
71043;BME280;58696;52.134;5.500;2023-02-13T00:13:55;103963.16;;;6.68;81.83
71043;BME280;58696;52.134;5.500;2023-02-13T00:16:22;103953.03;;;6.66;82.02
71043;BME280;58696;52.134;5.500;2023-02-13T00:18:50;103955.59;;;6.66;81.95
71043;BME280;58696;52.134;5.500;2023-02-13T00:21:17;103947.91;;;6.66;81.91
71043;BME280;58696;52.134;5.500;2023-02-13T00:23:45;103951.28;;;6.67;81.87
71043;BME280;58696;52.134;5.500;2023-02-13T00:26:15;103942.06;;;6.64;81.72
71043;BME280;58696;52.134;5.500;2023-02-13T00:28:44;103942.06;;;6.64;81.89
71043;BME280;58696;52.134;5.500;2023-02-13T00:31:14;103936.97;;;6.64;82.09
71043;BME280;58696;52.134;5.500;2023-02-13T00:33:44;103945.44;;;6.65;82.15
71043;BME280;58696;52.134;5.500;2023-02-13T00:36:14;103946.28;;;6.65;82.19
71043;BME280;58696;52.134;5.500;2023-02-13T00:38:42;103936.13;;;6.64;82.06
71043;BME280;58696;52.134;5.500;2023-02-13T00:41:09;103937.00;;;6.63;82.14
71043;BME280;58696;52.134;5.500;2023-02-13T00:43:37;103942.94;;;6.63;82.14
71043;BME280;58696;52.134;5.500;2023-02-13T00:46:04;103934.47;;;6.63;82.12
71043;BME280;58696;52.134;5.500;2023-02-13T00:48:33;103938.94;;;6.59;82.13
71043;BME280;58696;52.134;5.500;2023-02-13T00:51:01;103933.00;;;6.58;82.06
71043;BME280;58696;52.134;5.500;2023-02-13T00:53:31;103926.28;;;6.56;82.01
71043;BME280;58696;52.134;5.500;2023-02-13T00:55:58;103930.66;;;6.54;82.18
71043;BME280;58696;52.134;5.500;2023-02-13T00:58:26;103928.19;;;6.52;82.13
71043;BME280;58696;52.134;5.500;2023-02-13T01:00:55;103927.28;;;6.53;82.36
71043;BME280;58696;52.134;5.500;2023-02-13T01:03:23;103925.66;;;6.52;82.18
71043;BME280;58696;52.134;5.500;2023-02-13T01:05:51;103933.31;;;6.52;82.39
71043;BME280;58696;52.134;5.500;2023-02-13T01:08:19;103924.78;;;6.52;82.44
71043;BME280;58696;52.134;5.500;2023-02-13T01:10:47;103935.09;;;6.50;82.40
71043;BME280;58696;52.134;5.500;2023-02-13T01:13:16;103936.75;;;6.51;82.45
71043;BME280;58696;52.134;5.500;2023-02-13T01:15:46;103930.91;;;6.49;82.52
71043;BME280;58696;52.134;5.500;2023-02-13T01:18:16;103938.56;;;6.49;82.45
71043;BME280;58696;52.134;5.500;2023-02-13T01:20:45;103937.75;;;6.49;82.59
71043;BME280;58696;52.134;5.500;2023-02-13T01:23:22;103935.19;;;6.49;82.51
71043;BME280;58696;52.134;5.500;2023-02-13T01:25:50;103934.28;;;6.50;82.63
71043;BME280;58696;52.134;5.500;2023-02-13T01:28:19;103938.66;;;6.48;82.45
71043;BME280;58696;52.134;5.500;2023-02-13T01:30:52;103931.00;;;6.48;82.62
71043;BME280;58696;52.134;5.500;2023-02-13T01:33:23;103920.81;;;6.46;82.67
71043;BME280;58696;52.134;5.500;2023-02-13T01:35:50;103921.66;;;6.47;82.77
71043;BME280;58696;52.134;5.500;2023-02-13T01:38:19;103921.72;;;6.45;82.67
71043;BME280;58696;52.134;5.500;2023-02-13T01:40:52;103926.94;;;6.44;82.68
71043;BME280;58696;52.134;5.500;2023-02-13T01:43:20;103924.28;;;6.45;82.54
71043;BME280;58696;52.134;5.500;2023-02-13T01:45:53;103923.56;;;6.43;82.56
71043;BME280;58696;52.134;5.500;2023-02-13T01:48:26;103927.91;;;6.41;82.58
71043;BME280;58696;52.134;5.500;2023-02-13T01:51:03;103922.78;;;6.41;82.69
71043;BME280;58696;52.134;5.500;2023-02-13T01:53:57;103909.28;;;6.39;82.61
71043;BME280;58696;52.134;5.500;2023-02-13T01:56:37;103915.22;;;6.40;82.80
71043;BME280;58696;52.134;5.500;2023-02-13T01:59:13;103916.84;;;6.41;82.64
71043;BME280;58696;52.134;5.500;2023-02-13T02:01:44;103913.47;;;6.40;82.80
71043;BME280;58696;52.134;5.500;2023-02-13T02:04:17;103901.63;;;6.39;82.91
71043;BME280;58696;52.134;5.500;2023-02-13T02:06:54;103912.66;;;6.40;82.83
71043;BME280;58696;52.134;5.500;2023-02-13T02:09:31;103907.63;;;6.38;82.99
71043;BME280;58696;52.134;5.500;2023-02-13T02:12:23;103911.84;;;6.39;82.98
71043;BME280;58696;52.134;5.500;2023-02-13T02:14:55;103906.72;;;6.39;83.27
71043;BME280;58696;52.134;5.500;2023-02-13T02:17:26;103910.19;;;6.38;83.18
71043;BME280;58696;52.134;5.500;2023-02-13T02:20:21;103908.47;;;6.39;83.19
71043;BME280;58696;52.134;5.500;2023-02-13T02:45:06;103907.63;;;6.38;83.44
71043;BME280;58696;52.134;5.500;2023-02-13T02:47:46;103894.03;;;6.38;83.47
71043;BME280;58696;52.134;5.500;2023-02-13T02:51:06;103893.88;;;6.41;83.29
71043;BME280;58696;52.134;5.500;2023-02-13T02:53:43;103896.38;;;6.42;83.47
71043;BME280;58696;52.134;5.500;2023-02-13T02:56:33;103895.53;;;6.42;83.46
71043;BME280;58696;52.134;5.500;2023-02-13T02:59:07;103890.44;;;6.42;83.40
71043;BME280;58696;52.134;5.500;2023-02-13T03:01:56;103895.59;;;6.40;83.28
71043;BME280;58696;52.134;5.500;2023-02-13T03:04:45;103893.94;;;6.39;83.30
71043;BME280;58696;52.134;5.500;2023-02-13T03:07:32;103896.50;;;6.39;83.28
71043;BME280;58696;52.134;5.500;2023-02-13T03:10:10;103895.69;;;6.39;83.49
71043;BME280;58696;52.134;5.500;2023-02-13T03:13:38;103891.41;;;6.39;83.66
71043;BME280;58696;52.134;5.500;2023-02-13T03:16:00;103894.03;;;6.38;83.41
71043;BME280;58696;52.134;5.500;2023-02-13T03:18:57;103894.88;;;6.38;83.58
71043;BME280;58696;52.134;5.500;2023-02-13T03:22:16;103899.16;;;6.38;83.64
71043;BME280;58696;52.134;5.500;2023-02-13T03:41:51;103890.66;;;6.37;83.86
71043;BME280;58696;52.134;5.500;2023-02-13T03:48:03;103904.16;;;6.39;84.06
71043;BME280;58696;52.134;5.500;2023-02-13T03:50:55;103897.34;;;6.40;84.21
71043;BME280;58696;52.134;5.500;2023-02-13T03:53:27;103906.72;;;6.39;84.39
71043;BME280;58696;52.134;5.500;2023-02-13T03:55:57;103896.59;;;6.38;84.60
71043;BME280;58696;52.134;5.500;2023-02-13T03:58:49;103895.84;;;6.36;84.51
71043;BME280;58696;52.134;5.500;2023-02-13T04:01:37;103889.84;;;6.37;85.02
71043;BME280;58696;52.134;5.500;2023-02-13T04:06:59;103896.59;;;6.38;84.81
71043;BME280;58696;52.134;5.500;2023-02-13T04:09:26;103892.31;;;6.38;84.78
71043;BME280;58696;52.134;5.500;2023-02-13T04:12:01;103898.31;;;6.37;84.83
71043;BME280;58696;52.134;5.500;2023-02-13T04:14:48;103895.00;;;6.35;84.93
71043;BME280;58696;52.134;5.500;2023-02-13T04:17:33;103895.09;;;6.33;84.87
71043;BME280;58696;52.134;5.500;2023-02-13T04:20:02;103902.84;;;6.32;85.25
71043;BME280;58696;52.134;5.500;2023-02-13T04:22:32;103888.25;;;6.34;85.21
71043;BME280;58696;52.134;5.500;2023-02-13T04:24:59;103894.19;;;6.35;85.16
71043;BME280;58696;52.134;5.500;2023-02-13T04:27:34;103900.94;;;6.36;85.23
71043;BME280;58696;52.134;5.500;2023-02-13T04:30:04;103897.50;;;6.37;85.29
71043;BME280;58696;52.134;5.500;2023-02-13T04:32:32;103896.75;;;6.35;85.65
71043;BME280;58696;52.134;5.500;2023-02-13T04:35:01;103886.53;;;6.35;85.44
71043;BME280;58696;52.134;5.500;2023-02-13T04:37:28;103887.44;;;6.33;85.79
71043;BME280;58696;52.134;5.500;2023-02-13T04:39:57;103897.66;;;6.33;85.89
71043;BME280;58696;52.134;5.500;2023-02-13T04:42:29;103896.00;;;6.32;85.89
71043;BME280;58696;52.134;5.500;2023-02-13T04:44:59;103894.28;;;6.33;85.74
71043;BME280;58696;52.134;5.500;2023-02-13T04:47:25;103896.91;;;6.31;86.28
71043;BME280;58696;52.134;5.500;2023-02-13T04:49:52;103885.94;;;6.29;86.24
71043;BME280;58696;52.134;5.500;2023-02-13T04:52:19;103886.94;;;6.27;86.35
71043;BME280;58696;52.134;5.500;2023-02-13T04:54:45;103879.25;;;6.27;86.61
71043;BME280;58696;52.134;5.500;2023-02-13T04:57:15;103884.19;;;6.30;86.52
71043;BME280;58696;52.134;5.500;2023-02-13T04:59:44;103884.28;;;6.28;86.48
71043;BME280;58696;52.134;5.500;2023-02-13T05:02:13;103887.66;;;6.29;86.49
71043;BME280;58696;52.134;5.500;2023-02-13T05:04:39;103881.72;;;6.28;86.64
71043;BME280;58696;52.134;5.500;2023-02-13T05:07:08;103875.81;;;6.28;86.67
71043;BME280;58696;52.134;5.500;2023-02-13T05:09:34;103872.56;;;6.24;86.31
71043;BME280;58696;52.134;5.500;2023-02-13T05:12:01;103864.03;;;6.25;86.56
71043;BME280;58696;52.134;5.500;2023-02-13T05:14:28;103873.25;;;6.28;86.64
71043;BME280;58696;52.134;5.500;2023-02-13T05:16:57;103865.59;;;6.28;86.79
71043;BME280;58696;52.134;5.500;2023-02-13T05:19:23;103871.69;;;6.25;86.68
71043;BME280;58696;52.134;5.500;2023-02-13T05:21:50;103864.84;;;6.26;86.47
71043;BME280;58696;52.134;5.500;2023-02-13T05:24:37;103863.13;;;6.26;86.65
71043;BME280;58696;52.134;5.500;2023-02-13T05:27:04;103863.19;;;6.25;86.78
71043;BME280;58696;52.134;5.500;2023-02-13T05:29:32;103859.78;;;6.24;86.87
71043;BME280;58696;52.134;5.500;2023-02-13T05:31:59;103858.91;;;6.25;86.91
71043;BME280;58696;52.134;5.500;2023-02-13T05:34:28;103859.75;;;6.26;87.10
71043;BME280;58696;52.134;5.500;2023-02-13T05:36:56;103857.25;;;6.24;86.94
71043;BME280;58696;52.134;5.500;2023-02-13T05:39:23;103859.75;;;6.26;86.80
71043;BME280;58696;52.134;5.500;2023-02-13T05:41:52;103856.28;;;6.27;86.91
71043;BME280;58696;52.134;5.500;2023-02-13T05:44:19;103856.28;;;6.27;87.01
71043;BME280;58696;52.134;5.500;2023-02-13T05:46:46;103860.47;;;6.28;86.72
71043;BME280;58696;52.134;5.500;2023-02-13T05:49:15;103860.63;;;6.25;87.12
71043;BME280;58696;52.134;5.500;2023-02-13T05:51:44;103864.91;;;6.24;87.36
71043;BME280;58696;52.134;5.500;2023-02-13T05:54:14;103863.25;;;6.23;87.11
71043;BME280;58696;52.134;5.500;2023-02-13T05:56:41;103861.53;;;6.24;86.78
71043;BME280;58696;52.134;5.500;2023-02-13T05:59:08;103864.09;;;6.24;87.07
71043;BME280;58696;52.134;5.500;2023-02-13T06:01:34;103864.03;;;6.25;86.91
71043;BME280;58696;52.134;5.500;2023-02-13T06:04:01;103865.72;;;6.25;87.20
71043;BME280;58696;52.134;5.500;2023-02-13T06:06:31;103863.94;;;6.27;86.97
71043;BME280;58696;52.134;5.500;2023-02-13T06:09:03;103861.47;;;6.25;86.84
71043;BME280;58696;52.134;5.500;2023-02-13T06:11:30;103865.66;;;6.26;87.12
71043;BME280;58696;52.134;5.500;2023-02-13T06:13:58;103868.13;;;6.28;86.81
71043;BME280;58696;52.134;5.500;2023-02-13T06:16:25;103864.69;;;6.29;86.98
71043;BME280;58696;52.134;5.500;2023-02-13T06:18:52;103853.56;;;6.30;86.80
71043;BME280;58696;52.134;5.500;2023-02-13T06:21:19;103864.59;;;6.30;86.88
71043;BME280;58696;52.134;5.500;2023-02-13T06:23:49;103860.25;;;6.32;87.02
71043;BME280;58696;52.134;5.500;2023-02-13T06:26:15;103861.88;;;6.33;86.95
71043;BME280;58696;52.134;5.500;2023-02-13T06:28:42;103859.34;;;6.33;86.92
71043;BME280;58696;52.134;5.500;2023-02-13T06:31:08;103861.75;;;6.37;86.82
71043;BME280;58696;52.134;5.500;2023-02-13T06:33:35;103863.38;;;6.38;86.88
71043;BME280;58696;52.134;5.500;2023-02-13T06:36:05;103865.13;;;6.37;86.65
71043;BME280;58696;52.134;5.500;2023-02-13T06:38:32;103874.50;;;6.37;86.75
71043;BME280;58696;52.134;5.500;2023-02-13T06:41:00;103873.59;;;6.38;86.69
71043;BME280;58696;52.134;5.500;2023-02-13T06:43:30;103870.06;;;6.40;86.82
71043;BME280;58696;52.134;5.500;2023-02-13T06:45:57;103875.16;;;6.40;87.10
71043;BME280;58696;52.134;5.500;2023-02-13T06:48:29;103876.91;;;6.40;86.90
71043;BME280;58696;52.134;5.500;2023-02-13T06:50:56;103871.78;;;6.40;87.13
71043;BME280;58696;52.134;5.500;2023-02-13T06:53:25;103876.16;;;6.38;87.08
71043;BME280;58696;52.134;5.500;2023-02-13T06:55:54;103869.41;;;6.37;86.89
71043;BME280;58696;52.134;5.500;2023-02-13T06:58:23;103877.06;;;6.37;87.01
71043;BME280;58696;52.134;5.500;2023-02-13T07:00:51;103881.34;;;6.36;86.85
71043;BME280;58696;52.134;5.500;2023-02-13T07:03:18;103876.97;;;6.38;87.12
71043;BME280;58696;52.134;5.500;2023-02-13T07:05:45;103886.28;;;6.39;87.13
71043;BME280;58696;52.134;5.500;2023-02-13T07:08:14;103886.28;;;6.39;87.05
71043;BME280;58696;52.134;5.500;2023-02-13T07:10:41;103885.31;;;6.42;87.49
71043;BME280;58696;52.134;5.500;2023-02-13T07:13:09;103886.97;;;6.43;87.39
71043;BME280;58696;52.134;5.500;2023-02-13T07:15:37;103890.25;;;6.45;87.25
71043;BME280;58696;52.134;5.500;2023-02-13T07:18:04;103886.78;;;6.46;87.11
71043;BME280;58696;52.134;5.500;2023-02-13T07:20:32;103889.28;;;6.47;87.21
71043;BME280;58696;52.134;5.500;2023-02-13T07:23:00;103891.75;;;6.49;87.26
71043;BME280;58696;52.134;5.500;2023-02-13T07:25:28;103896.69;;;6.52;87.16
71043;BME280;58696;52.134;5.500;2023-02-13T07:28:00;103897.53;;;6.52;87.39
71043;BME280;58696;52.134;5.500;2023-02-13T07:30:28;103889.94;;;6.51;86.89
71043;BME280;58696;52.134;5.500;2023-02-13T07:33:00;103892.44;;;6.52;87.12
71043;BME280;58696;52.134;5.500;2023-02-13T07:35:30;103890.59;;;6.54;87.10
71043;BME280;58696;52.134;5.500;2023-02-13T07:37:57;103884.59;;;6.55;87.16
71043;BME280;58696;52.134;5.500;2023-02-13T07:40:26;103890.28;;;6.61;87.25
71043;BME280;58696;52.134;5.500;2023-02-13T07:42:53;103889.38;;;6.62;87.41
71043;BME280;58696;52.134;5.500;2023-02-13T07:45:21;103884.13;;;6.65;86.87
71043;BME280;58696;52.134;5.500;2023-02-13T07:47:48;103889.03;;;6.68;87.05
71043;BME280;58696;52.134;5.500;2023-02-13T07:50:14;103894.84;;;6.71;86.91
71043;BME280;58696;52.134;5.500;2023-02-13T07:52:41;103891.22;;;6.75;87.07
71043;BME280;58696;52.134;5.500;2023-02-13T07:55:08;103896.97;;;6.79;87.14
71043;BME280;58696;52.134;5.500;2023-02-13T07:57:37;103895.91;;;6.83;87.05
71043;BME280;58696;52.134;5.500;2023-02-13T08:00:07;103901.69;;;6.87;86.83
71043;BME280;58696;52.134;5.500;2023-02-13T08:02:34;103898.91;;;6.91;86.85
71043;BME280;58696;52.134;5.500;2023-02-13T08:05:00;103906.28;;;6.96;86.70
71043;BME280;58696;52.134;5.500;2023-02-13T08:07:27;103906.97;;;6.99;86.62
71043;BME280;58696;52.134;5.500;2023-02-13T08:09:54;103906.72;;;7.04;86.84
71043;BME280;58696;52.134;5.500;2023-02-13T08:12:40;103911.59;;;7.08;86.63
71043;BME280;58696;52.134;5.500;2023-02-13T08:15:10;103916.53;;;7.11;86.45
71043;BME280;58696;52.134;5.500;2023-02-13T08:17:37;103917.28;;;7.14;86.56
71043;BME280;58696;52.134;5.500;2023-02-13T08:20:08;103918.69;;;7.19;86.62
71043;BME280;58696;52.134;5.500;2023-02-13T08:22:40;103923.63;;;7.22;86.67
71043;BME280;58696;52.134;5.500;2023-02-13T08:25:09;103919.91;;;7.28;86.41
71043;BME280;58696;52.134;5.500;2023-02-13T08:27:38;103916.34;;;7.30;86.55
71043;BME280;58696;52.134;5.500;2023-02-13T08:30:05;103916.13;;;7.35;86.18
71043;BME280;58696;52.134;5.500;2023-02-13T08:32:32;103924.25;;;7.42;86.49
71043;BME280;58696;52.134;5.500;2023-02-13T08:35:17;103920.53;;;7.47;86.60
71043;BME280;58696;52.134;5.500;2023-02-13T08:37:46;103921.94;;;7.53;86.29
71043;BME280;58696;52.134;5.500;2023-02-13T08:40:13;103917.53;;;7.55;86.23
71043;BME280;58696;52.134;5.500;2023-02-13T08:42:40;103924.16;;;7.59;86.15
71043;BME280;58696;52.134;5.500;2023-02-13T08:45:07;103924.72;;;7.64;85.89
71043;BME280;58696;52.134;5.500;2023-02-13T08:47:37;103919.34;;;7.69;85.88
71043;BME280;58696;52.134;5.500;2023-02-13T08:50:05;103918.31;;;7.71;85.84
71043;BME280;58696;52.134;5.500;2023-02-13T08:52:32;103917.25;;;7.75;85.67
71043;BME280;58696;52.134;5.500;2023-02-13T08:54:58;103920.47;;;7.79;85.47
71043;BME280;58696;52.134;5.500;2023-02-13T08:57:26;103931.28;;;7.84;85.63
71043;BME280;58696;52.134;5.500;2023-02-13T08:59:53;103922.22;;;7.93;85.61
71043;BME280;58696;52.134;5.500;2023-02-13T09:02:19;103923.44;;;8.01;85.57
71043;BME280;58696;52.134;5.500;2023-02-13T09:04:49;103924.47;;;8.13;85.54
71043;BME280;58696;52.134;5.500;2023-02-13T09:07:19;103923.84;;;8.24;85.25
71043;BME280;58696;52.134;5.500;2023-02-13T09:09:48;103918.25;;;8.31;84.87
71043;BME280;58696;52.134;5.500;2023-02-13T09:12:27;103913.69;;;8.36;84.41
71043;BME280;58696;52.134;5.500;2023-02-13T09:14:54;103912.44;;;8.43;84.21
71043;BME280;58696;52.134;5.500;2023-02-13T09:17:23;103918.19;;;8.47;84.17
71043;BME280;58696;52.134;5.500;2023-02-13T09:19:50;103918.84;;;8.51;83.78
71043;BME280;58696;52.134;5.500;2023-02-13T09:22:17;103916.63;;;8.59;83.31
71043;BME280;58696;52.134;5.500;2023-02-13T09:24:49;103914.00;;;8.60;83.42
71043;BME280;58696;52.134;5.500;2023-02-13T09:27:16;103911.88;;;8.67;83.58
71043;BME280;58696;52.134;5.500;2023-02-13T09:29:43;103925.22;;;8.72;83.10
71043;BME280;58696;52.134;5.500;2023-02-13T09:32:10;103917.88;;;8.80;83.35
71043;BME280;58696;52.134;5.500;2023-02-13T09:34:36;103913.44;;;8.96;82.46
71043;BME280;58696;52.134;5.500;2023-02-13T09:37:03;103913.56;;;8.95;82.46
71043;BME280;58696;52.134;5.500;2023-02-13T09:39:35;103915.16;;;9.10;82.28
71043;BME280;58696;52.134;5.500;2023-02-13T09:42:13;103911.09;;;9.20;82.23
71043;BME280;58696;52.134;5.500;2023-02-13T09:44:44;103912.75;;;9.21;81.78
71043;BME280;58696;52.134;5.500;2023-02-13T09:49:47;103913.28;;;9.66;81.54
71043;BME280;58696;52.134;5.500;2023-02-13T09:52:16;103910.28;;;9.60;80.89
71043;BME280;58696;52.134;5.500;2023-02-13T09:54:42;103910.56;;;9.42;80.90
71043;BME280;58696;52.134;5.500;2023-02-13T10:00:07;103913.53;;;9.36;81.16
71043;BME280;58696;52.134;5.500;2023-02-13T10:05:36;103917.13;;;10.87;78.35
71043;BME280;58696;52.134;5.500;2023-02-13T10:18:40;103917.72;;;11.73;73.37
71043;BME280;58696;52.134;5.500;2023-02-13T10:21:10;103915.28;;;11.13;74.05
71043;BME280;58696;52.134;5.500;2023-02-13T10:24:06;103915.81;;;10.81;74.95
71043;BME280;58696;52.134;5.500;2023-02-13T10:26:33;103913.34;;;11.03;75.19
71043;BME280;58696;52.134;5.500;2023-02-13T10:32:02;103911.75;;;11.26;74.04
71043;BME280;58696;52.134;5.500;2023-02-13T10:34:36;103905.00;;;11.13;74.09
71043;BME280;58696;52.134;5.500;2023-02-13T10:37:26;103907.56;;;11.13;74.11
71043;BME280;58696;52.134;5.500;2023-02-13T10:39:54;103910.81;;;11.27;74.17
71043;BME280;58696;52.134;5.500;2023-02-13T10:50:47;103895.28;;;11.40;73.36
71043;BME280;58696;52.134;5.500;2023-02-13T10:53:50;103891.53;;;11.44;72.39
71043;BME280;58696;52.134;5.500;2023-02-13T10:56:30;103895.88;;;11.44;72.65
71043;BME280;58696;52.134;5.500;2023-02-13T11:04:49;103888.22;;;11.77;72.54
71043;BME280;58696;52.134;5.500;2023-02-13T11:07:18;103887.88;;;11.71;72.05
71043;BME280;58696;52.134;5.500;2023-02-13T11:09:48;103884.41;;;11.94;71.95
71043;BME280;58696;52.134;5.500;2023-02-13T11:12:31;103879.38;;;12.26;71.17
71043;BME280;58696;52.134;5.500;2023-02-13T11:15:02;103870.94;;;12.35;70.39
71043;BME280;58696;52.134;5.500;2023-02-13T11:17:33;103873.88;;;12.20;70.25
71043;BME280;58696;52.134;5.500;2023-02-13T11:20:07;103875.03;;;12.16;70.59
71043;BME280;58696;52.134;5.500;2023-02-13T11:23:42;103866.81;;;12.44;69.89
71043;BME280;58696;52.134;5.500;2023-02-13T11:28:57;103856.25;;;12.58;69.61
71043;BME280;58696;52.134;5.500;2023-02-13T11:31:38;103869.34;;;12.78;68.94
71043;BME280;58696;52.134;5.500;2023-02-13T11:34:32;103866.31;;;13.05;67.95
71043;BME280;58696;52.134;5.500;2023-02-13T11:39:39;103860.84;;;12.87;67.07
71043;BME280;58696;52.134;5.500;2023-02-13T11:42:23;103860.13;;;12.96;66.67
71043;BME280;58696;52.134;5.500;2023-02-13T11:44:53;103845.00;;;13.24;66.44
71043;BME280;58696;52.134;5.500;2023-02-13T11:47:36;103849.47;;;13.42;66.56
71043;BME280;58696;52.134;5.500;2023-02-13T11:50:18;103846.69;;;13.76;65.62
71043;BME280;58696;52.134;5.500;2023-02-13T11:52:57;103840.94;;;13.73;65.67
71043;BME280;58696;52.134;5.500;2023-02-13T11:55:33;103841.66;;;13.84;64.27
71043;BME280;58696;52.134;5.500;2023-02-13T12:00:42;103835.59;;;14.35;63.32
71043;BME280;58696;52.134;5.500;2023-02-13T12:06:09;103825.78;;;13.89;65.20
71043;BME280;58696;52.134;5.500;2023-02-13T12:08:40;103821.94;;;13.83;63.92
71043;BME280;58696;52.134;5.500;2023-02-13T12:11:47;103822.56;;;13.66;64.63
71043;BME280;58696;52.134;5.500;2023-02-13T12:14:27;103826.09;;;13.23;65.33
71043;BME280;58696;52.134;5.500;2023-02-13T12:17:07;103816.44;;;13.46;65.82
71043;BME280;58696;52.134;5.500;2023-02-13T12:19:54;103807.31;;;13.42;64.99
71043;BME280;58696;52.134;5.500;2023-02-13T12:22:45;103811.22;;;13.36;65.16
71043;BME280;58696;52.134;5.500;2023-02-13T12:25:52;103823.75;;;13.41;65.92
71043;BME280;58696;52.134;5.500;2023-02-13T12:31:40;103808.91;;;13.33;66.50
71043;BME280;58696;52.134;5.500;2023-02-13T12:34:40;103806.94;;;13.26;65.81
71043;BME280;58696;52.134;5.500;2023-02-13T12:37:22;103813.38;;;13.31;65.76
71043;BME280;58696;52.134;5.500;2023-02-13T12:43:48;103818.44;;;13.33;66.11
71043;BME280;58696;52.134;5.500;2023-02-13T12:49:24;103810.91;;;13.51;66.40
71043;BME280;58696;52.134;5.500;2023-02-13T13:01:02;103798.88;;;13.40;65.00
71043;BME280;58696;52.134;5.500;2023-02-13T13:12:32;103775.25;;;13.03;66.13
71043;BME280;58696;52.134;5.500;2023-02-13T13:15:32;103773.03;;;12.98;67.11
71043;BME280;58696;52.134;5.500;2023-02-13T13:21:16;103772.22;;;13.19;66.71
71043;BME280;58696;52.134;5.500;2023-02-13T13:26:47;103759.56;;;12.95;66.33
71043;BME280;58696;52.134;5.500;2023-02-13T13:29:20;103761.22;;;12.96;65.80
71043;BME280;58696;52.134;5.500;2023-02-13T13:31:52;103757.88;;;13.05;65.80
71043;BME280;58696;52.134;5.500;2023-02-13T13:34:25;103755.97;;;13.07;66.18
71043;BME280;58696;52.134;5.500;2023-02-13T13:36:58;103746.78;;;13.14;65.37
71043;BME280;58696;52.134;5.500;2023-02-13T13:50:16;103741.22;;;13.39;65.37
71043;BME280;58696;52.134;5.500;2023-02-13T13:53:13;103736.84;;;13.30;65.30
71043;BME280;58696;52.134;5.500;2023-02-13T13:58:45;103731.22;;;13.25;65.27
71043;BME280;58696;52.134;5.500;2023-02-13T14:03:49;103733.91;;;13.45;65.09
71043;BME280;58696;52.134;5.500;2023-02-13T14:06:22;103725.72;;;13.39;64.72
71043;BME280;58696;52.134;5.500;2023-02-13T14:08:57;103726.78;;;13.37;64.98
71043;BME280;58696;52.134;5.500;2023-02-13T14:13:52;103717.63;;;13.23;64.90
71043;BME280;58696;52.134;5.500;2023-02-13T14:19:45;103712.75;;;13.09;64.80
71043;BME280;58696;52.134;5.500;2023-02-13T14:24:59;103710.47;;;13.15;64.52
71043;BME280;58696;52.134;5.500;2023-02-13T14:27:37;103717.13;;;13.08;64.61
71043;BME280;58696;52.134;5.500;2023-02-13T14:30:27;103713.56;;;13.09;64.91
71043;BME280;58696;52.134;5.500;2023-02-13T14:32:59;103718.06;;;13.07;64.89
71043;BME280;58696;52.134;5.500;2023-02-13T14:35:29;103714.88;;;12.94;65.14
71043;BME280;58696;52.134;5.500;2023-02-13T14:37:57;103701.69;;;12.97;65.33
71043;BME280;58696;52.134;5.500;2023-02-13T14:40:51;103702.13;;;13.02;65.37
71043;BME280;58696;52.134;5.500;2023-02-13T14:43:26;103708.69;;;13.06;65.33
71043;BME280;58696;52.134;5.500;2023-02-13T14:46:23;103707.94;;;12.95;65.59
71043;BME280;58696;52.134;5.500;2023-02-13T14:49:04;103708.56;;;12.87;65.20
71043;BME280;58696;52.134;5.500;2023-02-13T14:51:34;103704.03;;;12.79;65.16
71043;BME280;58696;52.134;5.500;2023-02-13T14:56:35;103700.72;;;12.68;66.49
71043;BME280;58696;52.134;5.500;2023-02-13T14:59:14;103697.09;;;12.59;66.23
71043;BME280;58696;52.134;5.500;2023-02-13T15:02:07;103690.53;;;12.55;66.64
71043;BME280;58696;52.134;5.500;2023-02-13T15:04:46;103685.44;;;12.44;66.72
71043;BME280;58696;52.134;5.500;2023-02-13T15:07:18;103686.34;;;12.22;67.08
71043;BME280;58696;52.134;5.500;2023-02-13T15:09:51;103687.91;;;12.13;67.73
71043;BME280;58696;52.134;5.500;2023-02-13T15:12:33;103694.25;;;12.09;67.58
71043;BME280;58696;52.134;5.500;2023-02-13T15:15:21;103689.44;;;12.04;68.13
71043;BME280;58696;52.134;5.500;2023-02-13T15:17:48;103694.28;;;11.98;68.29
71043;BME280;58696;52.134;5.500;2023-02-13T15:20:32;103693.81;;;11.93;68.49
71043;BME280;58696;52.134;5.500;2023-02-13T15:23:00;103695.34;;;11.84;68.52
71043;BME280;58696;52.134;5.500;2023-02-13T15:25:38;103699.91;;;11.80;68.58
71043;BME280;58696;52.134;5.500;2023-02-13T15:28:18;103696.41;;;11.70;68.98
71043;BME280;58696;52.134;5.500;2023-02-13T15:30:58;103689.84;;;11.66;69.21
71043;BME280;58696;52.134;5.500;2023-02-13T15:33:31;103687.06;;;11.58;69.66
71043;BME280;58696;52.134;5.500;2023-02-13T15:36:01;103684.56;;;11.56;69.92
71043;BME280;58696;52.134;5.500;2023-02-13T15:38:31;103690.78;;;11.54;69.75
71043;BME280;58696;52.134;5.500;2023-02-13T15:41:11;103684.84;;;11.42;69.66
71043;BME280;58696;52.134;5.500;2023-02-13T15:43:44;103687.97;;;11.35;70.09
71043;BME280;58696;52.134;5.500;2023-02-13T15:46:31;103685.53;;;11.33;70.40
71043;BME280;58696;52.134;5.500;2023-02-13T15:49:05;103682.69;;;11.25;70.55
71043;BME280;58696;52.134;5.500;2023-02-13T15:51:32;103684.56;;;11.23;70.71
71043;BME280;58696;52.134;5.500;2023-02-13T15:54:05;103678.25;;;11.16;70.77
71043;BME280;58696;52.134;5.500;2023-02-13T15:56:32;103677.44;;;11.15;71.13
71043;BME280;58696;52.134;5.500;2023-02-13T15:59:02;103678.94;;;11.06;71.27
71043;BME280;58696;52.134;5.500;2023-02-13T16:01:32;103675.09;;;11.01;71.56
71043;BME280;58696;52.134;5.500;2023-02-13T16:04:02;103684.06;;;10.95;71.95